< < Back
Terminal Aerodrome Forecast


Current Version              Previous Versions:   1  2  3  4  5  6  7  8  9  

Terminal Aerodrome Forecast

172
FTUS44 KBMX 041505 AAA
TAFBHM
TAF AMD
KBHM 041505Z 0415/0512 25007KT P6SM VCSH BKN050
     FM041900 24010KT 4SM SHRA VCTS OVC050CB
     FM050500 23003KT 6SM BR VCTS SCT015CB OVC025=

Latest METAR

091
SAUS70 KWBC 042200 RRH
MTRBHM
METAR KBHM 042153Z 12006KT 9SM -RA OVC110 24/23 A3001 RMK AO2 LTG DSNT
SE AND SW RAB02 SLP154 P0003 T02440233


USA.gov is the U.S. government's official web portal to all federal, state and local government web resources and services.